sensor_id;sensor_type;location;lat;lon;timestamp;temperature;humidity
22035;DHT22;11181;51.002;4.356;2024-02-21T00:00:03;11.20;99.90
22035;DHT22;11181;51.002;4.356;2024-02-21T00:02:30;11.30;99.90
22035;DHT22;11181;51.002;4.356;2024-02-21T00:04:57;11.30;99.90
22035;DHT22;11181;51.002;4.356;2024-02-21T00:07:24;11.20;99.90
22035;DHT22;11181;51.002;4.356;2024-02-21T00:09:51;11.10;99.90
22035;DHT22;11181;51.002;4.356;2024-02-21T00:12:18;11.00;99.90
22035;DHT22;11181;51.002;4.356;2024-02-21T00:14:45;11.00;99.90
22035;DHT22;11181;51.002;4.356;2024-02-21T00:17:12;11.00;99.90
22035;DHT22;11181;51.002;4.356;2024-02-21T00:19:39;11.00;99.90
22035;DHT22;11181;51.002;4.356;2024-02-21T00:22:06;10.90;99.90
22035;DHT22;11181;51.002;4.356;2024-02-21T00:24:33;10.90;99.90
22035;DHT22;11181;51.002;4.356;2024-02-21T00:27:00;10.90;99.90
22035;DHT22;11181;51.002;4.356;2024-02-21T00:29:29;10.90;99.90
22035;DHT22;11181;51.002;4.356;2024-02-21T00:31:55;10.90;99.90
22035;DHT22;11181;51.002;4.356;2024-02-21T00:34:22;10.80;99.90
22035;DHT22;11181;51.002;4.356;2024-02-21T00:36:49;10.80;99.90
22035;DHT22;11181;51.002;4.356;2024-02-21T00:39:16;10.90;99.90
22035;DHT22;11181;51.002;4.356;2024-02-21T00:41:43;11.00;99.90
22035;DHT22;11181;51.002;4.356;2024-02-21T00:44:13;11.10;99.90
22035;DHT22;11181;51.002;4.356;2024-02-21T00:46:41;11.10;99.90
22035;DHT22;11181;51.002;4.356;2024-02-21T00:49:08;11.00;99.90
22035;DHT22;11181;51.002;4.356;2024-02-21T00:51:35;11.00;99.90
22035;DHT22;11181;51.002;4.356;2024-02-21T00:54:01;11.00;99.90
22035;DHT22;11181;51.002;4.356;2024-02-21T00:56:28;11.00;99.90
22035;DHT22;11181;51.002;4.356;2024-02-21T00:58:56;10.90;99.90
22035;DHT22;11181;51.002;4.356;2024-02-21T01:01:24;10.80;99.90
22035;DHT22;11181;51.002;4.356;2024-02-21T01:03:53;10.90;99.90
22035;DHT22;11181;51.002;4.356;2024-02-21T01:06:20;10.90;99.90
22035;DHT22;11181;51.002;4.356;2024-02-21T01:08:47;10.80;99.90
22035;DHT22;11181;51.002;4.356;2024-02-21T01:11:14;10.80;99.90
22035;DHT22;11181;51.002;4.356;2024-02-21T01:13:41;10.80;99.90
22035;DHT22;11181;51.002;4.356;2024-02-21T01:16:08;10.70;99.90
22035;DHT22;11181;51.002;4.356;2024-02-21T01:18:37;10.60;99.90
22035;DHT22;11181;51.002;4.356;2024-02-21T01:21:07;10.50;99.90
22035;DHT22;11181;51.002;4.356;2024-02-21T01:23:37;10.60;99.90
22035;DHT22;11181;51.002;4.356;2024-02-21T01:26:07;10.70;99.90
22035;DHT22;11181;51.002;4.356;2024-02-21T01:28:35;10.70;99.90
22035;DHT22;11181;51.002;4.356;2024-02-21T01:31:03;10.70;99.90
22035;DHT22;11181;51.002;4.356;2024-02-21T01:33:30;10.60;99.90
22035;DHT22;11181;51.002;4.356;2024-02-21T01:36:00;10.70;99.90
22035;DHT22;11181;51.002;4.356;2024-02-21T01:38:28;10.70;99.90
22035;DHT22;11181;51.002;4.356;2024-02-21T01:40:57;10.70;99.90
22035;DHT22;11181;51.002;4.356;2024-02-21T01:43:24;10.70;99.90
22035;DHT22;11181;51.002;4.356;2024-02-21T01:45:53;10.70;99.90
22035;DHT22;11181;51.002;4.356;2024-02-21T01:48:21;10.70;99.90
22035;DHT22;11181;51.002;4.356;2024-02-21T01:50:49;10.80;99.90
22035;DHT22;11181;51.002;4.356;2024-02-21T01:53:18;10.90;99.90
22035;DHT22;11181;51.002;4.356;2024-02-21T01:55:48;10.80;99.90
22035;DHT22;11181;51.002;4.356;2024-02-21T01:58:15;10.80;99.90
22035;DHT22;11181;51.002;4.356;2024-02-21T02:00:43;10.70;99.90
22035;DHT22;11181;51.002;4.356;2024-02-21T02:03:11;10.70;99.90
22035;DHT22;11181;51.002;4.356;2024-02-21T02:05:43;10.60;99.90
22035;DHT22;11181;51.002;4.356;2024-02-21T02:08:11;10.60;99.90
22035;DHT22;11181;51.002;4.356;2024-02-21T02:10:38;10.70;99.90
22035;DHT22;11181;51.002;4.356;2024-02-21T02:13:07;10.60;99.90
22035;DHT22;11181;51.002;4.356;2024-02-21T02:15:41;10.60;99.90
22035;DHT22;11181;51.002;4.356;2024-02-21T02:18:08;10.70;99.90
22035;DHT22;11181;51.002;4.356;2024-02-21T02:20:38;10.60;99.90
22035;DHT22;11181;51.002;4.356;2024-02-21T02:23:07;10.70;99.90
22035;DHT22;11181;51.002;4.356;2024-02-21T02:25:38;10.70;99.90
22035;DHT22;11181;51.002;4.356;2024-02-21T02:28:06;10.70;99.90
22035;DHT22;11181;51.002;4.356;2024-02-21T02:30:33;10.80;99.90
22035;DHT22;11181;51.002;4.356;2024-02-21T02:33:01;10.80;99.90
22035;DHT22;11181;51.002;4.356;2024-02-21T02:35:29;10.80;99.90
22035;DHT22;11181;51.002;4.356;2024-02-21T02:37:55;10.80;99.90
22035;DHT22;11181;51.002;4.356;2024-02-21T02:40:22;10.80;99.90
22035;DHT22;11181;51.002;4.356;2024-02-21T02:42:51;10.80;99.90
22035;DHT22;11181;51.002;4.356;2024-02-21T02:45:21;10.60;99.90
22035;DHT22;11181;51.002;4.356;2024-02-21T02:47:48;10.60;99.90
22035;DHT22;11181;51.002;4.356;2024-02-21T02:50:15;10.60;99.90
22035;DHT22;11181;51.002;4.356;2024-02-21T02:52:42;10.50;99.90
22035;DHT22;11181;51.002;4.356;2024-02-21T02:55:09;10.60;99.90
22035;DHT22;11181;51.002;4.356;2024-02-21T02:57:36;10.50;99.90
22035;DHT22;11181;51.002;4.356;2024-02-21T03:00:06;10.50;99.90
22035;DHT22;11181;51.002;4.356;2024-02-21T03:02:33;10.60;99.90
22035;DHT22;11181;51.002;4.356;2024-02-21T03:05:00;10.50;99.90
22035;DHT22;11181;51.002;4.356;2024-02-21T03:07:27;10.50;99.90
22035;DHT22;11181;51.002;4.356;2024-02-21T03:09:54;10.50;99.90
22035;DHT22;11181;51.002;4.356;2024-02-21T03:12:21;10.60;99.90
22035;DHT22;11181;51.002;4.356;2024-02-21T03:14:53;10.70;99.90
22035;DHT22;11181;51.002;4.356;2024-02-21T03:17:21;10.80;99.90
22035;DHT22;11181;51.002;4.356;2024-02-21T03:19:48;10.80;99.90
22035;DHT22;11181;51.002;4.356;2024-02-21T03:22:16;10.90;99.90
22035;DHT22;11181;51.002;4.356;2024-02-21T03:24:43;10.90;99.90
22035;DHT22;11181;51.002;4.356;2024-02-21T03:27:10;10.80;99.90
22035;DHT22;11181;51.002;4.356;2024-02-21T03:29:37;10.80;99.90
22035;DHT22;11181;51.002;4.356;2024-02-21T03:32:04;10.70;99.90
22035;DHT22;11181;51.002;4.356;2024-02-21T03:34:32;10.70;99.90
22035;DHT22;11181;51.002;4.356;2024-02-21T03:37:01;10.80;99.90
22035;DHT22;11181;51.002;4.356;2024-02-21T03:39:31;10.70;99.90
22035;DHT22;11181;51.002;4.356;2024-02-21T03:41:58;10.70;99.90
22035;DHT22;11181;51.002;4.356;2024-02-21T03:44:26;10.70;99.90
22035;DHT22;11181;51.002;4.356;2024-02-21T03:46:53;10.50;99.90
22035;DHT22;11181;51.002;4.356;2024-02-21T03:49:20;10.60;99.90
22035;DHT22;11181;51.002;4.356;2024-02-21T03:51:48;10.40;99.90
22035;DHT22;11181;51.002;4.356;2024-02-21T03:54:15;10.40;99.90
22035;DHT22;11181;51.002;4.356;2024-02-21T03:56:42;10.40;99.90
22035;DHT22;11181;51.002;4.356;2024-02-21T03:59:09;10.40;99.90
22035;DHT22;11181;51.002;4.356;2024-02-21T04:01:36;10.50;99.90
22035;DHT22;11181;51.002;4.356;2024-02-21T04:04:03;10.60;99.90
22035;DHT22;11181;51.002;4.356;2024-02-21T04:06:30;10.50;99.90
22035;DHT22;11181;51.002;4.356;2024-02-21T04:08:59;10.60;99.90
22035;DHT22;11181;51.002;4.356;2024-02-21T04:11:25;10.60;99.90
22035;DHT22;11181;51.002;4.356;2024-02-21T04:13:52;10.60;99.90
22035;DHT22;11181;51.002;4.356;2024-02-21T04:16:19;10.40;99.90
22035;DHT22;11181;51.002;4.356;2024-02-21T04:18:46;10.30;99.90
22035;DHT22;11181;51.002;4.356;2024-02-21T04:21:14;10.30;99.90
22035;DHT22;11181;51.002;4.356;2024-02-21T04:23:42;10.30;99.90
22035;DHT22;11181;51.002;4.356;2024-02-21T04:26:10;10.20;99.90
22035;DHT22;11181;51.002;4.356;2024-02-21T04:28:37;10.30;99.90
22035;DHT22;11181;51.002;4.356;2024-02-21T04:31:04;10.30;99.90
22035;DHT22;11181;51.002;4.356;2024-02-21T04:33:31;10.40;99.90
22035;DHT22;11181;51.002;4.356;2024-02-21T04:35:58;10.50;99.90
22035;DHT22;11181;51.002;4.356;2024-02-21T04:38:26;10.50;99.90
22035;DHT22;11181;51.002;4.356;2024-02-21T04:40:54;10.50;99.90
22035;DHT22;11181;51.002;4.356;2024-02-21T04:43:22;10.40;99.90
22035;DHT22;11181;51.002;4.356;2024-02-21T04:45:49;10.30;99.90
22035;DHT22;11181;51.002;4.356;2024-02-21T04:48:19;10.20;99.90
22035;DHT22;11181;51.002;4.356;2024-02-21T04:50:46;10.30;99.90
22035;DHT22;11181;51.002;4.356;2024-02-21T04:53:12;10.20;99.90
22035;DHT22;11181;51.002;4.356;2024-02-21T04:55:39;10.20;99.90
22035;DHT22;11181;51.002;4.356;2024-02-21T04:58:07;10.30;99.90
22035;DHT22;11181;51.002;4.356;2024-02-21T05:00:35;10.50;99.90
22035;DHT22;11181;51.002;4.356;2024-02-21T05:03:02;10.50;99.90
22035;DHT22;11181;51.002;4.356;2024-02-21T05:05:29;10.50;99.90
22035;DHT22;11181;51.002;4.356;2024-02-21T05:07:59;10.50;99.90
22035;DHT22;11181;51.002;4.356;2024-02-21T05:10:26;10.40;99.90
22035;DHT22;11181;51.002;4.356;2024-02-21T05:12:54;10.40;99.90
22035;DHT22;11181;51.002;4.356;2024-02-21T05:15:20;10.40;99.90
22035;DHT22;11181;51.002;4.356;2024-02-21T05:17:49;10.60;99.90
22035;DHT22;11181;51.002;4.356;2024-02-21T05:20:15;10.60;99.90
22035;DHT22;11181;51.002;4.356;2024-02-21T05:22:42;10.70;99.90
22035;DHT22;11181;51.002;4.356;2024-02-21T05:25:09;10.50;99.90
22035;DHT22;11181;51.002;4.356;2024-02-21T05:27:36;10.40;99.90
22035;DHT22;11181;51.002;4.356;2024-02-21T05:30:05;10.40;99.90
22035;DHT22;11181;51.002;4.356;2024-02-21T05:32:33;10.20;99.90
22035;DHT22;11181;51.002;4.356;2024-02-21T05:35:01;10.10;99.90
22035;DHT22;11181;51.002;4.356;2024-02-21T05:37:31;10.20;99.90
22035;DHT22;11181;51.002;4.356;2024-02-21T05:39:57;10.30;99.90
22035;DHT22;11181;51.002;4.356;2024-02-21T05:42:24;10.20;99.90
22035;DHT22;11181;51.002;4.356;2024-02-21T05:44:51;10.30;99.90
22035;DHT22;11181;51.002;4.356;2024-02-21T05:47:18;10.20;99.90
22035;DHT22;11181;51.002;4.356;2024-02-21T05:49:46;10.20;99.90
22035;DHT22;11181;51.002;4.356;2024-02-21T05:52:14;10.20;99.90
22035;DHT22;11181;51.002;4.356;2024-02-21T05:54:42;10.20;99.90
22035;DHT22;11181;51.002;4.356;2024-02-21T05:57:08;10.30;99.90
22035;DHT22;11181;51.002;4.356;2024-02-21T05:59:38;10.40;99.90
22035;DHT22;11181;51.002;4.356;2024-02-21T06:02:05;10.40;99.90
22035;DHT22;11181;51.002;4.356;2024-02-21T06:04:32;10.40;99.90
22035;DHT22;11181;51.002;4.356;2024-02-21T06:06:59;10.30;99.90
22035;DHT22;11181;51.002;4.356;2024-02-21T06:09:27;10.40;99.90
22035;DHT22;11181;51.002;4.356;2024-02-21T06:11:54;10.40;99.90
22035;DHT22;11181;51.002;4.356;2024-02-21T06:14:21;10.40;99.90
22035;DHT22;11181;51.002;4.356;2024-02-21T06:16:48;10.50;99.90
22035;DHT22;11181;51.002;4.356;2024-02-21T06:19:15;10.60;99.90
22035;DHT22;11181;51.002;4.356;2024-02-21T06:21:42;10.70;99.90
22035;DHT22;11181;51.002;4.356;2024-02-21T06:24:09;10.80;99.90
22035;DHT22;11181;51.002;4.356;2024-02-21T06:26:37;10.70;99.90
22035;DHT22;11181;51.002;4.356;2024-02-21T06:29:05;10.70;99.90
22035;DHT22;11181;51.002;4.356;2024-02-21T06:31:32;10.50;99.90
22035;DHT22;11181;51.002;4.356;2024-02-21T06:33:59;10.40;99.90
22035;DHT22;11181;51.002;4.356;2024-02-21T06:36:28;10.40;99.90
22035;DHT22;11181;51.002;4.356;2024-02-21T06:38:55;10.40;99.90
22035;DHT22;11181;51.002;4.356;2024-02-21T06:41:22;10.30;99.90
22035;DHT22;11181;51.002;4.356;2024-02-21T06:43:50;10.30;99.90
22035;DHT22;11181;51.002;4.356;2024-02-21T06:46:24;10.20;99.90
22035;DHT22;11181;51.002;4.356;2024-02-21T06:48:51;10.30;99.90
22035;DHT22;11181;51.002;4.356;2024-02-21T06:51:19;10.30;99.90
22035;DHT22;11181;51.002;4.356;2024-02-21T06:53:45;10.20;99.90
22035;DHT22;11181;51.002;4.356;2024-02-21T06:56:12;10.20;99.90
22035;DHT22;11181;51.002;4.356;2024-02-21T06:58:39;10.20;99.90
22035;DHT22;11181;51.002;4.356;2024-02-21T07:01:08;10.20;99.90
22035;DHT22;11181;51.002;4.356;2024-02-21T07:03:35;10.30;99.90
22035;DHT22;11181;51.002;4.356;2024-02-21T07:06:02;10.30;99.90
22035;DHT22;11181;51.002;4.356;2024-02-21T07:08:29;10.30;99.90
22035;DHT22;11181;51.002;4.356;2024-02-21T07:10:56;10.30;99.90
22035;DHT22;11181;51.002;4.356;2024-02-21T07:13:23;10.30;99.90
22035;DHT22;11181;51.002;4.356;2024-02-21T07:15:50;10.40;99.90
22035;DHT22;11181;51.002;4.356;2024-02-21T07:18:18;10.40;99.90
22035;DHT22;11181;51.002;4.356;2024-02-21T07:20:45;10.30;99.90
22035;DHT22;11181;51.002;4.356;2024-02-21T07:23:14;10.40;99.90
22035;DHT22;11181;51.002;4.356;2024-02-21T07:25:41;10.30;99.90
22035;DHT22;11181;51.002;4.356;2024-02-21T07:28:08;10.30;99.90
22035;DHT22;11181;51.002;4.356;2024-02-21T07:30:35;10.20;99.90
22035;DHT22;11181;51.002;4.356;2024-02-21T07:33:03;10.20;99.90
22035;DHT22;11181;51.002;4.356;2024-02-21T07:35:31;10.20;99.90
22035;DHT22;11181;51.002;4.356;2024-02-21T07:37:58;10.10;99.90
22035;DHT22;11181;51.002;4.356;2024-02-21T07:40:25;10.10;99.90
22035;DHT22;11181;51.002;4.356;2024-02-21T07:42:52;10.10;99.90
22035;DHT22;11181;51.002;4.356;2024-02-21T07:45:19;10.10;99.90
22035;DHT22;11181;51.002;4.356;2024-02-21T07:47:49;10.00;99.90
22035;DHT22;11181;51.002;4.356;2024-02-21T07:50:16;9.80;99.90
22035;DHT22;11181;51.002;4.356;2024-02-21T07:52:44;9.80;99.90
22035;DHT22;11181;51.002;4.356;2024-02-21T07:55:11;9.90;99.90
22035;DHT22;11181;51.002;4.356;2024-02-21T07:57:38;9.80;99.90
22035;DHT22;11181;51.002;4.356;2024-02-21T08:00:06;9.90;99.90
22035;DHT22;11181;51.002;4.356;2024-02-21T08:02:35;9.90;99.90
22035;DHT22;11181;51.002;4.356;2024-02-21T08:05:02;10.00;99.90
22035;DHT22;11181;51.002;4.356;2024-02-21T08:07:30;10.00;99.90
22035;DHT22;11181;51.002;4.356;2024-02-21T08:09:58;10.10;99.90
22035;DHT22;11181;51.002;4.356;2024-02-21T08:12:25;10.10;99.90
22035;DHT22;11181;51.002;4.356;2024-02-21T08:14:52;10.00;99.90
22035;DHT22;11181;51.002;4.356;2024-02-21T08:17:19;10.10;99.90
22035;DHT22;11181;51.002;4.356;2024-02-21T08:19:46;10.20;99.90
22035;DHT22;11181;51.002;4.356;2024-02-21T08:22:14;10.20;99.90
22035;DHT22;11181;51.002;4.356;2024-02-21T08:24:41;10.30;99.90
22035;DHT22;11181;51.002;4.356;2024-02-21T08:27:10;10.40;99.90
22035;DHT22;11181;51.002;4.356;2024-02-21T08:29:36;10.30;99.90
22035;DHT22;11181;51.002;4.356;2024-02-21T08:32:04;10.20;99.90
22035;DHT22;11181;51.002;4.356;2024-02-21T08:34:30;10.20;99.90
22035;DHT22;11181;51.002;4.356;2024-02-21T08:36:59;10.20;99.90
22035;DHT22;11181;51.002;4.356;2024-02-21T08:39:26;10.10;99.90
22035;DHT22;11181;51.002;4.356;2024-02-21T08:41:54;10.10;99.90
22035;DHT22;11181;51.002;4.356;2024-02-21T08:44:23;10.20;99.90
22035;DHT22;11181;51.002;4.356;2024-02-21T08:46:51;10.30;99.90
22035;DHT22;11181;51.002;4.356;2024-02-21T08:49:18;10.30;99.90
22035;DHT22;11181;51.002;4.356;2024-02-21T08:51:45;10.40;99.90
22035;DHT22;11181;51.002;4.356;2024-02-21T08:54:12;10.40;99.90
22035;DHT22;11181;51.002;4.356;2024-02-21T08:56:39;10.40;99.90
22035;DHT22;11181;51.002;4.356;2024-02-21T08:59:05;10.50;99.90
22035;DHT22;11181;51.002;4.356;2024-02-21T09:01:34;10.60;99.90
22035;DHT22;11181;51.002;4.356;2024-02-21T09:04:00;10.60;99.90
22035;DHT22;11181;51.002;4.356;2024-02-21T09:06:28;10.40;99.90
22035;DHT22;11181;51.002;4.356;2024-02-21T09:08:56;10.40;99.90
22035;DHT22;11181;51.002;4.356;2024-02-21T09:11:23;10.40;99.90
22035;DHT22;11181;51.002;4.356;2024-02-21T09:13:50;10.30;99.90
22035;DHT22;11181;51.002;4.356;2024-02-21T09:16:17;10.30;99.90
22035;DHT22;11181;51.002;4.356;2024-02-21T09:18:45;10.40;99.90
22035;DHT22;11181;51.002;4.356;2024-02-21T09:21:12;10.60;99.90
22035;DHT22;11181;51.002;4.356;2024-02-21T09:23:39;10.70;99.90
22035;DHT22;11181;51.002;4.356;2024-02-21T09:26:06;10.60;99.90
22035;DHT22;11181;51.002;4.356;2024-02-21T09:28:35;10.60;99.90
22035;DHT22;11181;51.002;4.356;2024-02-21T09:31:02;10.80;99.90
22035;DHT22;11181;51.002;4.356;2024-02-21T09:33:29;10.70;99.90
22035;DHT22;11181;51.002;4.356;2024-02-21T09:35:58;10.60;99.90
22035;DHT22;11181;51.002;4.356;2024-02-21T09:38:25;10.60;99.90
22035;DHT22;11181;51.002;4.356;2024-02-21T09:40:59;10.60;99.90
22035;DHT22;11181;51.002;4.356;2024-02-21T09:43:27;10.70;99.90
22035;DHT22;11181;51.002;4.356;2024-02-21T09:45:56;10.70;99.90
22035;DHT22;11181;51.002;4.356;2024-02-21T09:48:38;10.60;99.90
22035;DHT22;11181;51.002;4.356;2024-02-21T09:51:09;10.70;99.90
22035;DHT22;11181;51.002;4.356;2024-02-21T09:53:38;10.70;99.90
22035;DHT22;11181;51.002;4.356;2024-02-21T09:56:08;10.80;99.90
22035;DHT22;11181;51.002;4.356;2024-02-21T09:58:35;10.70;99.90
22035;DHT22;11181;51.002;4.356;2024-02-21T10:01:02;10.70;99.90
22035;DHT22;11181;51.002;4.356;2024-02-21T10:03:32;10.70;99.90
22035;DHT22;11181;51.002;4.356;2024-02-21T10:05:59;10.80;99.90
22035;DHT22;11181;51.002;4.356;2024-02-21T10:08:28;10.80;99.90
22035;DHT22;11181;51.002;4.356;2024-02-21T10:10:55;10.80;99.90
22035;DHT22;11181;51.002;4.356;2024-02-21T10:13:26;10.80;99.90
22035;DHT22;11181;51.002;4.356;2024-02-21T10:16:04;11.00;99.90
22035;DHT22;11181;51.002;4.356;2024-02-21T10:18:31;11.20;99.90
22035;DHT22;11181;51.002;4.356;2024-02-21T10:21:02;11.20;99.90
22035;DHT22;11181;51.002;4.356;2024-02-21T10:23:43;11.40;99.90
22035;DHT22;11181;51.002;4.356;2024-02-21T10:26:11;11.30;99.90
22035;DHT22;11181;51.002;4.356;2024-02-21T10:28:38;11.20;99.90
22035;DHT22;11181;51.002;4.356;2024-02-21T10:31:08;11.20;99.90
22035;DHT22;11181;51.002;4.356;2024-02-21T10:33:35;11.30;99.90
22035;DHT22;11181;51.002;4.356;2024-02-21T10:36:07;11.20;99.90
22035;DHT22;11181;51.002;4.356;2024-02-21T10:38:36;11.20;99.90
22035;DHT22;11181;51.002;4.356;2024-02-21T10:41:05;11.20;99.90
22035;DHT22;11181;51.002;4.356;2024-02-21T10:43:38;11.10;99.90
22035;DHT22;11181;51.002;4.356;2024-02-21T10:46:06;10.90;99.90
22035;DHT22;11181;51.002;4.356;2024-02-21T10:48:41;11.00;99.90
22035;DHT22;11181;51.002;4.356;2024-02-21T10:51:16;11.00;99.90
22035;DHT22;11181;51.002;4.356;2024-02-21T10:53:53;10.90;99.90
22035;DHT22;11181;51.002;4.356;2024-02-21T10:56:25;10.90;99.90
22035;DHT22;11181;51.002;4.356;2024-02-21T10:58:53;11.00;99.90
22035;DHT22;11181;51.002;4.356;2024-02-21T11:01:21;11.00;99.90
22035;DHT22;11181;51.002;4.356;2024-02-21T11:03:51;11.00;99.90
22035;DHT22;11181;51.002;4.356;2024-02-21T11:06:20;11.00;99.90
22035;DHT22;11181;51.002;4.356;2024-02-21T11:09:02;11.10;99.90
22035;DHT22;11181;51.002;4.356;2024-02-21T11:11:30;11.00;99.90
22035;DHT22;11181;51.002;4.356;2024-02-21T11:14:05;11.10;99.90
22035;DHT22;11181;51.002;4.356;2024-02-21T11:16:35;11.20;99.90
22035;DHT22;11181;51.002;4.356;2024-02-21T11:19:07;11.30;99.90
22035;DHT22;11181;51.002;4.356;2024-02-21T11:21:35;11.20;99.90
22035;DHT22;11181;51.002;4.356;2024-02-21T11:24:04;11.40;99.90
22035;DHT22;11181;51.002;4.356;2024-02-21T11:26:32;11.50;99.90
22035;DHT22;11181;51.002;4.356;2024-02-21T11:28:59;11.60;99.90
22035;DHT22;11181;51.002;4.356;2024-02-21T11:31:26;11.50;99.90
22035;DHT22;11181;51.002;4.356;2024-02-21T11:33:54;11.40;99.90
22035;DHT22;11181;51.002;4.356;2024-02-21T11:36:25;11.30;99.90
22035;DHT22;11181;51.002;4.356;2024-02-21T11:38:52;11.30;99.90
22035;DHT22;11181;51.002;4.356;2024-02-21T11:41:21;11.30;99.90
22035;DHT22;11181;51.002;4.356;2024-02-21T11:43:49;11.30;99.90
22035;DHT22;11181;51.002;4.356;2024-02-21T11:46:17;11.20;99.90
22035;DHT22;11181;51.002;4.356;2024-02-21T11:48:44;11.20;99.90
22035;DHT22;11181;51.002;4.356;2024-02-21T11:51:21;11.20;99.90
22035;DHT22;11181;51.002;4.356;2024-02-21T11:53:51;11.10;99.90
22035;DHT22;11181;51.002;4.356;2024-02-21T11:56:18;11.00;99.90
22035;DHT22;11181;51.002;4.356;2024-02-21T11:58:47;11.00;99.90
22035;DHT22;11181;51.002;4.356;2024-02-21T12:01:14;11.00;99.90
22035;DHT22;11181;51.002;4.356;2024-02-21T12:03:42;11.20;99.90
22035;DHT22;11181;51.002;4.356;2024-02-21T12:06:15;11.30;99.90
22035;DHT22;11181;51.002;4.356;2024-02-21T12:08:45;11.40;99.90
22035;DHT22;11181;51.002;4.356;2024-02-21T12:11:19;11.30;99.90
22035;DHT22;11181;51.002;4.356;2024-02-21T12:13:58;11.20;99.90
22035;DHT22;11181;51.002;4.356;2024-02-21T12:16:27;11.10;99.90
22035;DHT22;11181;51.002;4.356;2024-02-21T12:18:55;11.00;99.90
22035;DHT22;11181;51.002;4.356;2024-02-21T12:21:27;11.00;99.90
22035;DHT22;11181;51.002;4.356;2024-02-21T12:23:58;11.10;99.90
22035;DHT22;11181;51.002;4.356;2024-02-21T12:26:25;11.10;99.90
22035;DHT22;11181;51.002;4.356;2024-02-21T12:28:54;11.10;99.90
22035;DHT22;11181;51.002;4.356;2024-02-21T12:31:21;11.00;99.90
22035;DHT22;11181;51.002;4.356;2024-02-21T12:33:49;11.00;99.90
22035;DHT22;11181;51.002;4.356;2024-02-21T12:36:17;11.10;99.90
22035;DHT22;11181;51.002;4.356;2024-02-21T12:38:44;11.10;99.90
22035;DHT22;11181;51.002;4.356;2024-02-21T12:41:12;11.10;99.90
22035;DHT22;11181;51.002;4.356;2024-02-21T12:43:39;11.20;99.90
22035;DHT22;11181;51.002;4.356;2024-02-21T12:46:08;11.20;99.90
22035;DHT22;11181;51.002;4.356;2024-02-21T12:48:35;11.10;99.90
22035;DHT22;11181;51.002;4.356;2024-02-21T12:51:02;11.10;99.90
22035;DHT22;11181;51.002;4.356;2024-02-21T12:53:30;11.20;99.90
22035;DHT22;11181;51.002;4.356;2024-02-21T12:55:57;11.30;99.90
22035;DHT22;11181;51.002;4.356;2024-02-21T12:58:24;11.40;99.90
22035;DHT22;11181;51.002;4.356;2024-02-21T13:00:52;11.40;99.90
22035;DHT22;11181;51.002;4.356;2024-02-21T13:03:20;11.30;99.90
22035;DHT22;11181;51.002;4.356;2024-02-21T13:05:47;11.30;99.90
22035;DHT22;11181;51.002;4.356;2024-02-21T13:08:15;11.30;99.90
22035;DHT22;11181;51.002;4.356;2024-02-21T13:10:41;11.40;99.90
22035;DHT22;11181;51.002;4.356;2024-02-21T13:13:08;11.50;99.90
22035;DHT22;11181;51.002;4.356;2024-02-21T13:15:35;11.50;99.90
22035;DHT22;11181;51.002;4.356;2024-02-21T13:18:04;11.50;99.90
22035;DHT22;11181;51.002;4.356;2024-02-21T13:20:33;11.60;99.90
22035;DHT22;11181;51.002;4.356;2024-02-21T13:23:00;11.50;99.90
22035;DHT22;11181;51.002;4.356;2024-02-21T13:25:26;11.70;99.90
22035;DHT22;11181;51.002;4.356;2024-02-21T13:27:53;11.80;99.90
22035;DHT22;11181;51.002;4.356;2024-02-21T13:30:22;11.80;99.90
22035;DHT22;11181;51.002;4.356;2024-02-21T13:32:50;11.80;99.90
22035;DHT22;11181;51.002;4.356;2024-02-21T13:35:17;11.70;99.90
22035;DHT22;11181;51.002;4.356;2024-02-21T13:37:46;11.60;99.90
22035;DHT22;11181;51.002;4.356;2024-02-21T13:40:13;11.70;99.90
22035;DHT22;11181;51.002;4.356;2024-02-21T13:42:40;11.70;99.90
22035;DHT22;11181;51.002;4.356;2024-02-21T13:45:09;11.70;99.90
22035;DHT22;11181;51.002;4.356;2024-02-21T13:47:36;11.60;99.90
22035;DHT22;11181;51.002;4.356;2024-02-21T13:50:05;11.40;99.90
22035;DHT22;11181;51.002;4.356;2024-02-21T13:52:36;11.30;99.90
22035;DHT22;11181;51.002;4.356;2024-02-21T13:55:04;11.30;99.90
22035;DHT22;11181;51.002;4.356;2024-02-21T13:57:34;11.10;99.90
22035;DHT22;11181;51.002;4.356;2024-02-21T14:00:01;11.20;99.90
22035;DHT22;11181;51.002;4.356;2024-02-21T14:02:28;11.20;99.90
22035;DHT22;11181;51.002;4.356;2024-02-21T14:04:55;11.20;99.90
22035;DHT22;11181;51.002;4.356;2024-02-21T14:07:22;11.20;99.90
22035;DHT22;11181;51.002;4.356;2024-02-21T14:09:49;11.10;99.90
22035;DHT22;11181;51.002;4.356;2024-02-21T14:12:18;11.10;99.90
22035;DHT22;11181;51.002;4.356;2024-02-21T14:14:46;11.10;99.90
22035;DHT22;11181;51.002;4.356;2024-02-21T14:17:13;11.00;99.90
22035;DHT22;11181;51.002;4.356;2024-02-21T14:19:40;10.90;99.90
22035;DHT22;11181;51.002;4.356;2024-02-21T14:22:07;10.80;99.90
22035;DHT22;11181;51.002;4.356;2024-02-21T14:24:34;10.80;99.90
22035;DHT22;11181;51.002;4.356;2024-02-21T14:27:01;10.70;99.90
22035;DHT22;11181;51.002;4.356;2024-02-21T14:29:30;10.70;99.90
22035;DHT22;11181;51.002;4.356;2024-02-21T14:31:57;10.70;99.90
22035;DHT22;11181;51.002;4.356;2024-02-21T14:34:24;10.70;99.90
22035;DHT22;11181;51.002;4.356;2024-02-21T14:36:52;10.60;99.90
22035;DHT22;11181;51.002;4.356;2024-02-21T14:39:18;10.50;99.90
22035;DHT22;11181;51.002;4.356;2024-02-21T14:41:45;10.50;99.90
22035;DHT22;11181;51.002;4.356;2024-02-21T14:44:12;10.40;99.90
22035;DHT22;11181;51.002;4.356;2024-02-21T14:46:41;10.40;99.90
22035;DHT22;11181;51.002;4.356;2024-02-21T14:49:08;10.50;99.90
22035;DHT22;11181;51.002;4.356;2024-02-21T14:51:35;10.60;99.90
22035;DHT22;11181;51.002;4.356;2024-02-21T14:54:01;10.50;99.90
22035;DHT22;11181;51.002;4.356;2024-02-21T14:56:28;10.50;99.90
22035;DHT22;11181;51.002;4.356;2024-02-21T14:58:57;10.50;99.90
22035;DHT22;11181;51.002;4.356;2024-02-21T15:01:24;10.40;99.90
22035;DHT22;11181;51.002;4.356;2024-02-21T15:03:52;10.40;99.90
22035;DHT22;11181;51.002;4.356;2024-02-21T15:06:19;10.40;99.90
22035;DHT22;11181;51.002;4.356;2024-02-21T15:08:46;10.30;99.90
22035;DHT22;11181;51.002;4.356;2024-02-21T15:11:14;10.30;99.90
22035;DHT22;11181;51.002;4.356;2024-02-21T15:13:41;10.30;99.90
22035;DHT22;11181;51.002;4.356;2024-02-21T15:16:08;10.20;99.90
22035;DHT22;11181;51.002;4.356;2024-02-21T15:18:35;10.20;99.90
22035;DHT22;11181;51.002;4.356;2024-02-21T15:21:05;10.20;99.90
22035;DHT22;11181;51.002;4.356;2024-02-21T15:23:33;10.10;99.90
22035;DHT22;11181;51.002;4.356;2024-02-21T15:25:59;10.20;99.90
22035;DHT22;11181;51.002;4.356;2024-02-21T15:28:26;10.20;99.90
22035;DHT22;11181;51.002;4.356;2024-02-21T15:30:54;10.20;99.90
22035;DHT22;11181;51.002;4.356;2024-02-21T15:33:21;10.30;99.90